sensor_id;sensor_type;location;lat;lon;timestamp;P1;durP1;ratioP1;P2;durP2;ratioP2
58472;SDS011;44775;51.564;5.460;2022-10-16T00:00:31;9.48;;;5.03;;
58472;SDS011;44775;51.564;5.460;2022-10-16T00:02:57;9.48;;;5.25;;
58472;SDS011;44775;51.564;5.460;2022-10-16T00:05:23;10.05;;;5.53;;
58472;SDS011;44775;51.564;5.460;2022-10-16T00:07:48;8.07;;;5.43;;
58472;SDS011;44775;51.564;5.460;2022-10-16T00:10:13;10.25;;;5.60;;
58472;SDS011;44775;51.564;5.460;2022-10-16T00:12:39;10.57;;;5.47;;
58472;SDS011;44775;51.564;5.460;2022-10-16T00:15:05;11.40;;;5.57;;
58472;SDS011;44775;51.564;5.460;2022-10-16T00:17:31;12.23;;;5.90;;
58472;SDS011;44775;51.564;5.460;2022-10-16T00:19:56;14.07;;;6.57;;
58472;SDS011;44775;51.564;5.460;2022-10-16T00:22:21;12.02;;;6.60;;
58472;SDS011;44775;51.564;5.460;2022-10-16T00:24:47;9.90;;;5.75;;
58472;SDS011;44775;51.564;5.460;2022-10-16T00:27:12;9.05;;;5.07;;
58472;SDS011;44775;51.564;5.460;2022-10-16T00:29:38;10.43;;;5.13;;
58472;SDS011;44775;51.564;5.460;2022-10-16T00:32:03;10.15;;;5.07;;
58472;SDS011;44775;51.564;5.460;2022-10-16T00:34:29;9.52;;;4.78;;
58472;SDS011;44775;51.564;5.460;2022-10-16T00:36:54;10.88;;;5.28;;
58472;SDS011;44775;51.564;5.460;2022-10-16T00:39:20;7.40;;;4.97;;
58472;SDS011;44775;51.564;5.460;2022-10-16T00:41:46;7.47;;;4.85;;
58472;SDS011;44775;51.564;5.460;2022-10-16T00:49:49;9.20;;;4.47;;
58472;SDS011;44775;51.564;5.460;2022-10-16T00:52:16;8.10;;;4.80;;
58472;SDS011;44775;51.564;5.460;2022-10-16T00:54:42;9.45;;;5.13;;
58472;SDS011;44775;51.564;5.460;2022-10-16T00:57:08;7.82;;;4.90;;
58472;SDS011;44775;51.564;5.460;2022-10-16T00:59:35;6.88;;;4.72;;
58472;SDS011;44775;51.564;5.460;2022-10-16T01:02:03;6.63;;;4.32;;
58472;SDS011;44775;51.564;5.460;2022-10-16T01:04:31;9.85;;;4.68;;
58472;SDS011;44775;51.564;5.460;2022-10-16T01:07:14;8.57;;;4.40;;
58472;SDS011;44775;51.564;5.460;2022-10-16T01:09:51;6.63;;;4.40;;
58472;SDS011;44775;51.564;5.460;2022-10-16T01:12:40;7.90;;;4.63;;
58472;SDS011;44775;51.564;5.460;2022-10-16T01:15:11;10.60;;;4.75;;
58472;SDS011;44775;51.564;5.460;2022-10-16T01:20:51;7.30;;;4.80;;
58472;SDS011;44775;51.564;5.460;2022-10-16T01:23:32;7.18;;;4.40;;
58472;SDS011;44775;51.564;5.460;2022-10-16T01:26:13;6.35;;;4.50;;
58472;SDS011;44775;51.564;5.460;2022-10-16T01:28:56;6.95;;;4.50;;
58472;SDS011;44775;51.564;5.460;2022-10-16T01:31:27;8.95;;;4.93;;
58472;SDS011;44775;51.564;5.460;2022-10-16T01:34:00;7.20;;;4.40;;
58472;SDS011;44775;51.564;5.460;2022-10-16T01:36:37;8.63;;;4.93;;
58472;SDS011;44775;51.564;5.460;2022-10-16T01:39:08;8.68;;;4.70;;
58472;SDS011;44775;51.564;5.460;2022-10-16T01:41:43;6.05;;;3.90;;
58472;SDS011;44775;51.564;5.460;2022-10-16T01:44:17;8.50;;;4.50;;
58472;SDS011;44775;51.564;5.460;2022-10-16T01:46:47;7.10;;;3.90;;
58472;SDS011;44775;51.564;5.460;2022-10-16T01:49:15;6.85;;;4.22;;
58472;SDS011;44775;51.564;5.460;2022-10-16T01:51:43;5.90;;;3.92;;
58472;SDS011;44775;51.564;5.460;2022-10-16T01:54:12;8.82;;;3.92;;
58472;SDS011;44775;51.564;5.460;2022-10-16T01:56:40;5.22;;;4.18;;
58472;SDS011;44775;51.564;5.460;2022-10-16T01:59:10;6.88;;;3.95;;
58472;SDS011;44775;51.564;5.460;2022-10-16T02:01:40;4.53;;;3.55;;
58472;SDS011;44775;51.564;5.460;2022-10-16T02:04:17;6.35;;;3.35;;
58472;SDS011;44775;51.564;5.460;2022-10-16T02:06:47;7.95;;;3.70;;
58472;SDS011;44775;51.564;5.460;2022-10-16T02:09:13;6.43;;;3.70;;
58472;SDS011;44775;51.564;5.460;2022-10-16T02:11:41;6.55;;;3.70;;
58472;SDS011;44775;51.564;5.460;2022-10-16T02:14:07;7.70;;;3.75;;
58472;SDS011;44775;51.564;5.460;2022-10-16T02:16:41;8.27;;;3.50;;
58472;SDS011;44775;51.564;5.460;2022-10-16T02:19:08;7.78;;;3.70;;
58472;SDS011;44775;51.564;5.460;2022-10-16T02:21:48;5.00;;;3.45;;
58472;SDS011;44775;51.564;5.460;2022-10-16T02:27:13;7.30;;;3.75;;
58472;SDS011;44775;51.564;5.460;2022-10-16T02:29:50;6.63;;;3.40;;
58472;SDS011;44775;51.564;5.460;2022-10-16T02:32:24;5.57;;;3.47;;
58472;SDS011;44775;51.564;5.460;2022-10-16T02:34:55;7.65;;;3.47;;
58472;SDS011;44775;51.564;5.460;2022-10-16T02:37:22;6.40;;;3.22;;
58472;SDS011;44775;51.564;5.460;2022-10-16T02:39:49;4.70;;;3.30;;
58472;SDS011;44775;51.564;5.460;2022-10-16T02:42:15;7.13;;;3.65;;
58472;SDS011;44775;51.564;5.460;2022-10-16T02:44:43;4.78;;;3.28;;
58472;SDS011;44775;51.564;5.460;2022-10-16T02:47:09;6.55;;;3.15;;
58472;SDS011;44775;51.564;5.460;2022-10-16T02:49:34;4.63;;;3.30;;
58472;SDS011;44775;51.564;5.460;2022-10-16T02:52:00;4.40;;;3.40;;
58472;SDS011;44775;51.564;5.460;2022-10-16T02:54:25;5.35;;;3.38;;
58472;SDS011;44775;51.564;5.460;2022-10-16T02:56:50;6.07;;;3.28;;
58472;SDS011;44775;51.564;5.460;2022-10-16T02:59:16;7.10;;;3.47;;
58472;SDS011;44775;51.564;5.460;2022-10-16T03:01:42;4.47;;;3.28;;
58472;SDS011;44775;51.564;5.460;2022-10-16T03:04:08;6.00;;;3.20;;
58472;SDS011;44775;51.564;5.460;2022-10-16T03:06:33;6.20;;;3.35;;
58472;SDS011;44775;51.564;5.460;2022-10-16T03:08:59;5.88;;;3.22;;
58472;SDS011;44775;51.564;5.460;2022-10-16T03:11:24;4.82;;;3.30;;
58472;SDS011;44775;51.564;5.460;2022-10-16T03:13:51;4.35;;;3.20;;
58472;SDS011;44775;51.564;5.460;2022-10-16T03:16:17;6.95;;;3.45;;
58472;SDS011;44775;51.564;5.460;2022-10-16T03:18:42;7.35;;;3.17;;
58472;SDS011;44775;51.564;5.460;2022-10-16T03:21:07;4.47;;;3.03;;
58472;SDS011;44775;51.564;5.460;2022-10-16T03:23:33;6.82;;;3.05;;
58472;SDS011;44775;51.564;5.460;2022-10-16T03:25:58;5.55;;;3.10;;
58472;SDS011;44775;51.564;5.460;2022-10-16T03:28:24;6.05;;;3.28;;
58472;SDS011;44775;51.564;5.460;2022-10-16T03:30:49;5.10;;;2.92;;
58472;SDS011;44775;51.564;5.460;2022-10-16T03:33:15;6.15;;;3.40;;
58472;SDS011;44775;51.564;5.460;2022-10-16T03:35:40;7.03;;;3.28;;
58472;SDS011;44775;51.564;5.460;2022-10-16T03:38:06;4.60;;;2.97;;
58472;SDS011;44775;51.564;5.460;2022-10-16T03:40:31;5.82;;;2.95;;
58472;SDS011;44775;51.564;5.460;2022-10-16T03:42:57;4.20;;;2.83;;
58472;SDS011;44775;51.564;5.460;2022-10-16T03:45:23;6.38;;;3.30;;
58472;SDS011;44775;51.564;5.460;2022-10-16T03:47:49;4.90;;;2.88;;
58472;SDS011;44775;51.564;5.460;2022-10-16T03:50:14;6.25;;;2.95;;
58472;SDS011;44775;51.564;5.460;2022-10-16T03:52:40;6.20;;;3.10;;
58472;SDS011;44775;51.564;5.460;2022-10-16T03:55:05;7.75;;;2.80;;
58472;SDS011;44775;51.564;5.460;2022-10-16T03:57:31;5.68;;;3.05;;
58472;SDS011;44775;51.564;5.460;2022-10-16T03:59:57;5.43;;;3.22;;
58472;SDS011;44775;51.564;5.460;2022-10-16T04:02:22;5.50;;;3.25;;
58472;SDS011;44775;51.564;5.460;2022-10-16T04:04:48;5.45;;;3.10;;
58472;SDS011;44775;51.564;5.460;2022-10-16T04:07:13;4.85;;;3.17;;
58472;SDS011;44775;51.564;5.460;2022-10-16T04:09:39;4.03;;;3.20;;
58472;SDS011;44775;51.564;5.460;2022-10-16T04:12:04;4.28;;;3.13;;
58472;SDS011;44775;51.564;5.460;2022-10-16T04:14:30;6.38;;;3.30;;
58472;SDS011;44775;51.564;5.460;2022-10-16T04:16:55;5.13;;;3.40;;
58472;SDS011;44775;51.564;5.460;2022-10-16T04:19:21;4.72;;;3.25;;
58472;SDS011;44775;51.564;5.460;2022-10-16T04:21:46;4.40;;;3.30;;
58472;SDS011;44775;51.564;5.460;2022-10-16T04:24:12;6.03;;;3.55;;
58472;SDS011;44775;51.564;5.460;2022-10-16T04:26:37;4.50;;;3.15;;
58472;SDS011;44775;51.564;5.460;2022-10-16T04:29:03;5.35;;;3.38;;
58472;SDS011;44775;51.564;5.460;2022-10-16T04:31:28;7.00;;;3.60;;
58472;SDS011;44775;51.564;5.460;2022-10-16T04:33:54;6.90;;;3.50;;
58472;SDS011;44775;51.564;5.460;2022-10-16T04:36:19;4.63;;;3.80;;
58472;SDS011;44775;51.564;5.460;2022-10-16T04:38:45;5.00;;;3.65;;
58472;SDS011;44775;51.564;5.460;2022-10-16T04:41:10;10.27;;;3.55;;
58472;SDS011;44775;51.564;5.460;2022-10-16T04:43:36;6.35;;;3.53;;
58472;SDS011;44775;51.564;5.460;2022-10-16T04:46:01;7.38;;;3.33;;
58472;SDS011;44775;51.564;5.460;2022-10-16T04:48:29;7.10;;;3.50;;
58472;SDS011;44775;51.564;5.460;2022-10-16T04:50:55;6.65;;;3.60;;
58472;SDS011;44775;51.564;5.460;2022-10-16T04:53:20;6.85;;;3.83;;
58472;SDS011;44775;51.564;5.460;2022-10-16T04:55:46;4.18;;;3.25;;
58472;SDS011;44775;51.564;5.460;2022-10-16T04:58:12;5.70;;;3.78;;
58472;SDS011;44775;51.564;5.460;2022-10-16T05:00:37;5.65;;;3.40;;
58472;SDS011;44775;51.564;5.460;2022-10-16T05:03:03;5.38;;;3.25;;
58472;SDS011;44775;51.564;5.460;2022-10-16T05:05:32;6.47;;;3.60;;
58472;SDS011;44775;51.564;5.460;2022-10-16T05:07:58;7.40;;;3.70;;
58472;SDS011;44775;51.564;5.460;2022-10-16T05:10:24;6.35;;;3.58;;
58472;SDS011;44775;51.564;5.460;2022-10-16T05:12:49;7.07;;;3.70;;
58472;SDS011;44775;51.564;5.460;2022-10-16T05:15:16;6.47;;;3.70;;
58472;SDS011;44775;51.564;5.460;2022-10-16T05:17:41;5.75;;;3.72;;
58472;SDS011;44775;51.564;5.460;2022-10-16T05:20:07;5.65;;;3.80;;
58472;SDS011;44775;51.564;5.460;2022-10-16T05:22:32;5.10;;;3.85;;
58472;SDS011;44775;51.564;5.460;2022-10-16T05:24:58;7.10;;;3.60;;
58472;SDS011;44775;51.564;5.460;2022-10-16T05:27:23;6.70;;;3.50;;
58472;SDS011;44775;51.564;5.460;2022-10-16T05:29:49;5.78;;;3.40;;
58472;SDS011;44775;51.564;5.460;2022-10-16T05:32:15;6.53;;;3.45;;
58472;SDS011;44775;51.564;5.460;2022-10-16T05:34:41;5.15;;;3.38;;
58472;SDS011;44775;51.564;5.460;2022-10-16T05:37:07;6.90;;;4.05;;
58472;SDS011;44775;51.564;5.460;2022-10-16T05:39:33;5.75;;;3.28;;
58472;SDS011;44775;51.564;5.460;2022-10-16T05:41:58;5.90;;;3.58;;
58472;SDS011;44775;51.564;5.460;2022-10-16T05:44:24;6.63;;;3.63;;
58472;SDS011;44775;51.564;5.460;2022-10-16T05:46:49;7.05;;;3.65;;
58472;SDS011;44775;51.564;5.460;2022-10-16T05:49:15;9.20;;;4.20;;
58472;SDS011;44775;51.564;5.460;2022-10-16T05:51:41;7.72;;;3.50;;
58472;SDS011;44775;51.564;5.460;2022-10-16T05:54:06;8.52;;;3.78;;
58472;SDS011;44775;51.564;5.460;2022-10-16T05:56:33;7.97;;;3.67;;
58472;SDS011;44775;51.564;5.460;2022-10-16T05:58:58;8.95;;;3.67;;
58472;SDS011;44775;51.564;5.460;2022-10-16T06:01:23;10.07;;;4.10;;
58472;SDS011;44775;51.564;5.460;2022-10-16T06:03:53;7.32;;;3.83;;
58472;SDS011;44775;51.564;5.460;2022-10-16T06:06:22;7.43;;;3.95;;
58472;SDS011;44775;51.564;5.460;2022-10-16T06:08:50;6.93;;;3.88;;
58472;SDS011;44775;51.564;5.460;2022-10-16T06:11:18;8.32;;;4.05;;
58472;SDS011;44775;51.564;5.460;2022-10-16T06:13:48;7.05;;;4.28;;
58472;SDS011;44775;51.564;5.460;2022-10-16T06:16:14;6.18;;;3.85;;
58472;SDS011;44775;51.564;5.460;2022-10-16T06:18:40;7.20;;;3.72;;
58472;SDS011;44775;51.564;5.460;2022-10-16T06:21:09;9.05;;;4.10;;
58472;SDS011;44775;51.564;5.460;2022-10-16T06:23:36;5.63;;;3.97;;
58472;SDS011;44775;51.564;5.460;2022-10-16T06:26:06;6.97;;;3.97;;
58472;SDS011;44775;51.564;5.460;2022-10-16T06:28:32;7.95;;;4.35;;
58472;SDS011;44775;51.564;5.460;2022-10-16T06:31:01;6.63;;;4.20;;
58472;SDS011;44775;51.564;5.460;2022-10-16T06:33:27;7.05;;;4.00;;
58472;SDS011;44775;51.564;5.460;2022-10-16T06:35:53;6.57;;;4.18;;
58472;SDS011;44775;51.564;5.460;2022-10-16T06:38:18;9.98;;;4.15;;
58472;SDS011;44775;51.564;5.460;2022-10-16T06:40:44;6.80;;;4.22;;
58472;SDS011;44775;51.564;5.460;2022-10-16T06:43:09;8.98;;;4.07;;
58472;SDS011;44775;51.564;5.460;2022-10-16T06:45:35;7.85;;;4.18;;
58472;SDS011;44775;51.564;5.460;2022-10-16T06:48:00;6.57;;;3.80;;
58472;SDS011;44775;51.564;5.460;2022-10-16T06:50:25;5.65;;;3.75;;
58472;SDS011;44775;51.564;5.460;2022-10-16T06:52:51;8.13;;;3.55;;
58472;SDS011;44775;51.564;5.460;2022-10-16T06:55:16;7.55;;;3.88;;
58472;SDS011;44775;51.564;5.460;2022-10-16T06:57:42;6.97;;;3.53;;
58472;SDS011;44775;51.564;5.460;2022-10-16T07:00:09;8.15;;;3.55;;
58472;SDS011;44775;51.564;5.460;2022-10-16T07:02:34;9.98;;;4.20;;
58472;SDS011;44775;51.564;5.460;2022-10-16T07:05:00;6.03;;;3.90;;
58472;SDS011;44775;51.564;5.460;2022-10-16T07:07:25;9.02;;;3.67;;
58472;SDS011;44775;51.564;5.460;2022-10-16T07:09:51;5.60;;;3.47;;
58472;SDS011;44775;51.564;5.460;2022-10-16T07:12:17;9.63;;;4.13;;
58472;SDS011;44775;51.564;5.460;2022-10-16T07:14:43;5.78;;;3.30;;
58472;SDS011;44775;51.564;5.460;2022-10-16T07:17:08;7.00;;;3.65;;
58472;SDS011;44775;51.564;5.460;2022-10-16T07:19:34;6.57;;;3.50;;
58472;SDS011;44775;51.564;5.460;2022-10-16T07:21:59;6.03;;;3.88;;
58472;SDS011;44775;51.564;5.460;2022-10-16T07:24:25;8.05;;;3.45;;
58472;SDS011;44775;51.564;5.460;2022-10-16T07:26:51;5.53;;;3.20;;
58472;SDS011;44775;51.564;5.460;2022-10-16T07:29:17;6.07;;;3.30;;
58472;SDS011;44775;51.564;5.460;2022-10-16T07:31:45;7.63;;;3.47;;
58472;SDS011;44775;51.564;5.460;2022-10-16T07:34:11;6.47;;;2.88;;
58472;SDS011;44775;51.564;5.460;2022-10-16T07:36:38;6.03;;;3.10;;
58472;SDS011;44775;51.564;5.460;2022-10-16T07:39:04;5.40;;;3.20;;
58472;SDS011;44775;51.564;5.460;2022-10-16T07:41:29;5.38;;;2.97;;
58472;SDS011;44775;51.564;5.460;2022-10-16T07:43:55;4.38;;;3.22;;
58472;SDS011;44775;51.564;5.460;2022-10-16T07:46:24;7.93;;;2.95;;
58472;SDS011;44775;51.564;5.460;2022-10-16T07:48:50;4.53;;;3.03;;
58472;SDS011;44775;51.564;5.460;2022-10-16T07:51:17;6.57;;;3.10;;
58472;SDS011;44775;51.564;5.460;2022-10-16T07:53:44;5.53;;;2.90;;
58472;SDS011;44775;51.564;5.460;2022-10-16T07:56:10;3.50;;;2.67;;
58472;SDS011;44775;51.564;5.460;2022-10-16T07:58:36;4.13;;;2.72;;
58472;SDS011;44775;51.564;5.460;2022-10-16T08:01:03;3.53;;;2.60;;
58472;SDS011;44775;51.564;5.460;2022-10-16T08:03:30;5.38;;;2.85;;
58472;SDS011;44775;51.564;5.460;2022-10-16T08:05:56;5.88;;;2.75;;
58472;SDS011;44775;51.564;5.460;2022-10-16T08:08:22;5.63;;;2.60;;
58472;SDS011;44775;51.564;5.460;2022-10-16T08:10:48;4.85;;;2.60;;
58472;SDS011;44775;51.564;5.460;2022-10-16T08:13:13;7.43;;;2.63;;
58472;SDS011;44775;51.564;5.460;2022-10-16T08:15:40;5.65;;;2.40;;
58472;SDS011;44775;51.564;5.460;2022-10-16T08:18:06;3.58;;;2.28;;
58472;SDS011;44775;51.564;5.460;2022-10-16T08:20:32;4.30;;;2.33;;
58472;SDS011;44775;51.564;5.460;2022-10-16T08:23:01;4.25;;;2.63;;
58472;SDS011;44775;51.564;5.460;2022-10-16T08:25:27;5.50;;;2.55;;
58472;SDS011;44775;51.564;5.460;2022-10-16T08:27:53;5.93;;;2.60;;
58472;SDS011;44775;51.564;5.460;2022-10-16T08:30:19;6.43;;;2.60;;
58472;SDS011;44775;51.564;5.460;2022-10-16T08:32:46;3.38;;;2.20;;
58472;SDS011;44775;51.564;5.460;2022-10-16T08:35:12;5.03;;;2.60;;
58472;SDS011;44775;51.564;5.460;2022-10-16T08:37:39;5.78;;;2.50;;
58472;SDS011;44775;51.564;5.460;2022-10-16T08:40:05;6.40;;;2.75;;
58472;SDS011;44775;51.564;5.460;2022-10-16T08:45:13;4.20;;;2.20;;
58472;SDS011;44775;51.564;5.460;2022-10-16T08:50:29;4.68;;;2.40;;
58472;SDS011;44775;51.564;5.460;2022-10-16T08:52:56;4.22;;;2.45;;
58472;SDS011;44775;51.564;5.460;2022-10-16T08:58:16;6.70;;;2.13;;
58472;SDS011;44775;51.564;5.460;2022-10-16T09:00:45;7.15;;;2.45;;
58472;SDS011;44775;51.564;5.460;2022-10-16T09:03:16;4.55;;;1.92;;
58472;SDS011;44775;51.564;5.460;2022-10-16T09:06:17;5.53;;;2.22;;
58472;SDS011;44775;51.564;5.460;2022-10-16T09:16:52;5.70;;;1.90;;
58472;SDS011;44775;51.564;5.460;2022-10-16T09:21:59;4.50;;;2.40;;
58472;SDS011;44775;51.564;5.460;2022-10-16T09:24:35;6.13;;;2.20;;
58472;SDS011;44775;51.564;5.460;2022-10-16T09:27:02;7.57;;;2.00;;
58472;SDS011;44775;51.564;5.460;2022-10-16T09:29:27;6.90;;;1.80;;
58472;SDS011;44775;51.564;5.460;2022-10-16T09:31:53;4.95;;;1.80;;
58472;SDS011;44775;51.564;5.460;2022-10-16T09:34:32;11.25;;;2.10;;
58472;SDS011;44775;51.564;5.460;2022-10-16T09:37:03;7.68;;;1.90;;
58472;SDS011;44775;51.564;5.460;2022-10-16T09:39:43;3.80;;;1.50;;
58472;SDS011;44775;51.564;5.460;2022-10-16T09:42:11;7.75;;;1.80;;
58472;SDS011;44775;51.564;5.460;2022-10-16T09:44:41;6.25;;;1.80;;
58472;SDS011;44775;51.564;5.460;2022-10-16T09:47:16;6.30;;;1.80;;
58472;SDS011;44775;51.564;5.460;2022-10-16T09:52:27;7.10;;;2.20;;
58472;SDS011;44775;51.564;5.460;2022-10-16T09:54:57;7.32;;;1.80;;
58472;SDS011;44775;51.564;5.460;2022-10-16T09:57:24;9.20;;;1.90;;
58472;SDS011;44775;51.564;5.460;2022-10-16T09:59:57;6.00;;;1.85;;
58472;SDS011;44775;51.564;5.460;2022-10-16T10:02:44;7.18;;;1.73;;
58472;SDS011;44775;51.564;5.460;2022-10-16T10:05:20;11.43;;;2.38;;
58472;SDS011;44775;51.564;5.460;2022-10-16T10:07:53;10.68;;;1.90;;
58472;SDS011;44775;51.564;5.460;2022-10-16T10:10:30;5.93;;;1.85;;
58472;SDS011;44775;51.564;5.460;2022-10-16T10:12:58;7.55;;;1.83;;
58472;SDS011;44775;51.564;5.460;2022-10-16T10:15:24;4.85;;;1.65;;
58472;SDS011;44775;51.564;5.460;2022-10-16T10:17:56;8.60;;;2.28;;
58472;SDS011;44775;51.564;5.460;2022-10-16T10:20:24;8.85;;;2.20;;
58472;SDS011;44775;51.564;5.460;2022-10-16T10:22:54;9.05;;;1.90;;
58472;SDS011;44775;51.564;5.460;2022-10-16T10:28:25;7.88;;;2.08;;
58472;SDS011;44775;51.564;5.460;2022-10-16T10:36:09;7.90;;;1.75;;
58472;SDS011;44775;51.564;5.460;2022-10-16T10:46:42;6.50;;;1.75;;
58472;SDS011;44775;51.564;5.460;2022-10-16T10:57:52;7.18;;;1.52;;
58472;SDS011;44775;51.564;5.460;2022-10-16T11:05:44;9.98;;;1.80;;
58472;SDS011;44775;51.564;5.460;2022-10-16T11:08:19;8.95;;;1.90;;
58472;SDS011;44775;51.564;5.460;2022-10-16T11:16:03;9.30;;;1.80;;
58472;SDS011;44775;51.564;5.460;2022-10-16T11:21:43;6.47;;;1.60;;
58472;SDS011;44775;51.564;5.460;2022-10-16T11:27:11;7.25;;;1.77;;
58472;SDS011;44775;51.564;5.460;2022-10-16T11:30:06;10.00;;;1.98;;
58472;SDS011;44775;51.564;5.460;2022-10-16T11:32:34;9.00;;;1.63;;
58472;SDS011;44775;51.564;5.460;2022-10-16T11:35:39;9.70;;;1.90;;
58472;SDS011;44775;51.564;5.460;2022-10-16T11:38:15;7.93;;;1.60;;
58472;SDS011;44775;51.564;5.460;2022-10-16T11:41:18;10.23;;;1.73;;
58472;SDS011;44775;51.564;5.460;2022-10-16T11:46:47;9.82;;;2.20;;
58472;SDS011;44775;51.564;5.460;2022-10-16T11:49:21;7.70;;;1.75;;
58472;SDS011;44775;51.564;5.460;2022-10-16T11:52:06;11.57;;;1.70;;
58472;SDS011;44775;51.564;5.460;2022-10-16T11:54:41;8.43;;;1.70;;
58472;SDS011;44775;51.564;5.460;2022-10-16T11:57:27;6.60;;;1.42;;
58472;SDS011;44775;51.564;5.460;2022-10-16T12:00:07;7.93;;;1.55;;
58472;SDS011;44775;51.564;5.460;2022-10-16T12:08:06;7.35;;;1.40;;
58472;SDS011;44775;51.564;5.460;2022-10-16T12:10:35;8.57;;;1.80;;
58472;SDS011;44775;51.564;5.460;2022-10-16T12:13:26;8.50;;;1.88;;
58472;SDS011;44775;51.564;5.460;2022-10-16T12:18:36;7.47;;;1.65;;
58472;SDS011;44775;51.564;5.460;2022-10-16T12:21:03;6.20;;;1.48;;
58472;SDS011;44775;51.564;5.460;2022-10-16T12:23:31;7.45;;;1.65;;
58472;SDS011;44775;51.564;5.460;2022-10-16T12:25:59;9.32;;;1.77;;
58472;SDS011;44775;51.564;5.460;2022-10-16T12:28:30;7.95;;;1.55;;
58472;SDS011;44775;51.564;5.460;2022-10-16T12:31:01;9.95;;;1.80;;
58472;SDS011;44775;51.564;5.460;2022-10-16T12:33:35;7.68;;;1.80;;
58472;SDS011;44775;51.564;5.460;2022-10-16T12:36:08;5.38;;;1.33;;
58472;SDS011;44775;51.564;5.460;2022-10-16T12:38:57;6.90;;;1.58;;
58472;SDS011;44775;51.564;5.460;2022-10-16T12:41:30;7.45;;;1.77;;
58472;SDS011;44775;51.564;5.460;2022-10-16T12:43:57;7.65;;;1.77;;
58472;SDS011;44775;51.564;5.460;2022-10-16T12:49:06;7.43;;;1.60;;
58472;SDS011;44775;51.564;5.460;2022-10-16T12:54:01;7.35;;;1.50;;
58472;SDS011;44775;51.564;5.460;2022-10-16T12:59:42;7.15;;;1.50;;
58472;SDS011;44775;51.564;5.460;2022-10-16T13:10:26;5.40;;;1.20;;
58472;SDS011;44775;51.564;5.460;2022-10-16T13:18:34;5.20;;;1.45;;
58472;SDS011;44775;51.564;5.460;2022-10-16T13:24:12;6.15;;;1.42;;
58472;SDS011;44775;51.564;5.460;2022-10-16T13:26:44;7.80;;;1.40;;
58472;SDS011;44775;51.564;5.460;2022-10-16T13:29:18;6.45;;;1.38;;
58472;SDS011;44775;51.564;5.460;2022-10-16T13:31:44;7.93;;;1.40;;
58472;SDS011;44775;51.564;5.460;2022-10-16T13:34:14;7.28;;;1.60;;
58472;SDS011;44775;51.564;5.460;2022-10-16T13:36:47;8.70;;;1.50;;
58472;SDS011;44775;51.564;5.460;2022-10-16T13:39:24;5.95;;;1.48;;
58472;SDS011;44775;51.564;5.460;2022-10-16T13:47:18;5.82;;;1.38;;
58472;SDS011;44775;51.564;5.460;2022-10-16T13:49:46;7.88;;;1.50;;
58472;SDS011;44775;51.564;5.460;2022-10-16T13:52:19;7.07;;;1.23;;
58472;SDS011;44775;51.564;5.460;2022-10-16T13:54:46;6.40;;;1.33;;
58472;SDS011;44775;51.564;5.460;2022-10-16T13:57:15;5.28;;;1.60;;
58472;SDS011;44775;51.564;5.460;2022-10-16T13:59:42;5.60;;;1.40;;
58472;SDS011;44775;51.564;5.460;2022-10-16T14:04:51;6.18;;;1.30;;
58472;SDS011;44775;51.564;5.460;2022-10-16T14:07:20;4.90;;;1.25;;
58472;SDS011;44775;51.564;5.460;2022-10-16T14:09:50;6.07;;;1.95;;
58472;SDS011;44775;51.564;5.460;2022-10-16T14:12:17;4.10;;;1.30;;
58472;SDS011;44775;51.564;5.460;2022-10-16T14:14:44;5.55;;;1.30;;
58472;SDS011;44775;51.564;5.460;2022-10-16T14:17:22;5.28;;;1.30;;
58472;SDS011;44775;51.564;5.460;2022-10-16T14:19:51;3.35;;;1.60;;
58472;SDS011;44775;51.564;5.460;2022-10-16T14:25:23;5.32;;;1.55;;
58472;SDS011;44775;51.564;5.460;2022-10-16T14:27:57;6.97;;;1.80;;
58472;SDS011;44775;51.564;5.460;2022-10-16T14:30:24;6.43;;;1.60;;
58472;SDS011;44775;51.564;5.460;2022-10-16T14:33:33;6.60;;;1.50;;
58472;SDS011;44775;51.564;5.460;2022-10-16T14:36:00;7.47;;;1.60;;
58472;SDS011;44775;51.564;5.460;2022-10-16T14:38:35;9.13;;;2.47;;
58472;SDS011;44775;51.564;5.460;2022-10-16T14:41:02;6.75;;;2.90;;
58472;SDS011;44775;51.564;5.460;2022-10-16T14:45:59;5.15;;;1.77;;
58472;SDS011;44775;51.564;5.460;2022-10-16T14:48:27;10.38;;;2.83;;
58472;SDS011;44775;51.564;5.460;2022-10-16T14:50:53;4.22;;;1.80;;
58472;SDS011;44775;51.564;5.460;2022-10-16T14:53:19;4.72;;;2.10;;
58472;SDS011;44775;51.564;5.460;2022-10-16T14:55:44;6.68;;;1.83;;
58472;SDS011;44775;51.564;5.460;2022-10-16T14:58:14;6.72;;;2.10;;
58472;SDS011;44775;51.564;5.460;2022-10-16T15:00:42;7.20;;;2.00;;
58472;SDS011;44775;51.564;5.460;2022-10-16T15:03:08;6.10;;;2.10;;
58472;SDS011;44775;51.564;5.460;2022-10-16T15:05:34;14.23;;;3.95;;
58472;SDS011;44775;51.564;5.460;2022-10-16T15:07:59;6.43;;;2.42;;
58472;SDS011;44775;51.564;5.460;2022-10-16T15:10:25;6.65;;;2.30;;
58472;SDS011;44775;51.564;5.460;2022-10-16T15:12:54;5.85;;;2.28;;
58472;SDS011;44775;51.564;5.460;2022-10-16T15:17:54;5.85;;;2.08;;
58472;SDS011;44775;51.564;5.460;2022-10-16T15:20:23;3.63;;;1.60;;
58472;SDS011;44775;51.564;5.460;2022-10-16T15:22:49;7.50;;;1.70;;
58472;SDS011;44775;51.564;5.460;2022-10-16T15:28:10;5.88;;;2.67;;
58472;SDS011;44775;51.564;5.460;2022-10-16T15:30:37;7.50;;;2.83;;
58472;SDS011;44775;51.564;5.460;2022-10-16T15:33:03;5.07;;;2.20;;
58472;SDS011;44775;51.564;5.460;2022-10-16T15:35:29;8.10;;;2.78;;
58472;SDS011;44775;51.564;5.460;2022-10-16T15:37:55;4.07;;;2.22;;
58472;SDS011;44775;51.564;5.460;2022-10-16T15:40:22;6.00;;;2.00;;
58472;SDS011;44775;51.564;5.460;2022-10-16T15:42:48;6.82;;;2.30;;
58472;SDS011;44775;51.564;5.460;2022-10-16T15:45:14;7.20;;;2.00;;
58472;SDS011;44775;51.564;5.460;2022-10-16T15:47:43;10.30;;;4.82;;
58472;SDS011;44775;51.564;5.460;2022-10-16T15:52:38;4.05;;;2.20;;
58472;SDS011;44775;51.564;5.460;2022-10-16T15:55:05;4.00;;;2.03;;
58472;SDS011;44775;51.564;5.460;2022-10-16T15:57:35;5.43;;;2.20;;
58472;SDS011;44775;51.564;5.460;2022-10-16T16:00:04;6.25;;;2.55;;
58472;SDS011;44775;51.564;5.460;2022-10-16T16:02:32;6.60;;;2.20;;
58472;SDS011;44775;51.564;5.460;2022-10-16T16:04:57;8.10;;;2.75;;
58472;SDS011;44775;51.564;5.460;2022-10-16T16:07:23;4.53;;;2.45;;
58472;SDS011;44775;51.564;5.460;2022-10-16T16:09:49;5.13;;;2.10;;
58472;SDS011;44775;51.564;5.460;2022-10-16T16:12:14;5.07;;;1.83;;
58472;SDS011;44775;51.564;5.460;2022-10-16T16:14:40;6.63;;;1.90;;
58472;SDS011;44775;51.564;5.460;2022-10-16T16:17:05;4.18;;;1.90;;
58472;SDS011;44775;51.564;5.460;2022-10-16T16:19:31;5.68;;;1.98;;
58472;SDS011;44775;51.564;5.460;2022-10-16T16:21:57;4.65;;;2.00;;
58472;SDS011;44775;51.564;5.460;2022-10-16T16:24:23;5.03;;;2.00;;
58472;SDS011;44775;51.564;5.460;2022-10-16T16:26:49;8.00;;;2.50;;
58472;SDS011;44775;51.564;5.460;2022-10-16T16:29:14;4.95;;;2.28;;
58472;SDS011;44775;51.564;5.460;2022-10-16T16:31:41;5.65;;;2.42;;
58472;SDS011;44775;51.564;5.460;2022-10-16T16:34:07;5.93;;;2.80;;
58472;SDS011;44775;51.564;5.460;2022-10-16T16:36:33;4.90;;;2.40;;
58472;SDS011;44775;51.564;5.460;2022-10-16T16:38:58;5.22;;;2.72;;
58472;SDS011;44775;51.564;5.460;2022-10-16T16:41:25;9.10;;;3.40;;
58472;SDS011;44775;51.564;5.460;2022-10-16T16:43:52;8.73;;;3.38;;
58472;SDS011;44775;51.564;5.460;2022-10-16T16:46:18;8.77;;;3.50;;
58472;SDS011;44775;51.564;5.460;2022-10-16T16:48:45;7.78;;;3.20;;
58472;SDS011;44775;51.564;5.460;2022-10-16T16:51:12;6.22;;;2.65;;
58472;SDS011;44775;51.564;5.460;2022-10-16T16:53:41;8.07;;;2.80;;
58472;SDS011;44775;51.564;5.460;2022-10-16T16:56:08;6.78;;;3.00;;
58472;SDS011;44775;51.564;5.460;2022-10-16T16:58:34;5.40;;;2.80;;
58472;SDS011;44775;51.564;5.460;2022-10-16T17:01:00;7.13;;;3.10;;
58472;SDS011;44775;51.564;5.460;2022-10-16T17:03:30;5.10;;;2.90;;
58472;SDS011;44775;51.564;5.460;2022-10-16T17:06:03;5.03;;;3.03;;
58472;SDS011;44775;51.564;5.460;2022-10-16T17:08:36;8.25;;;2.85;;